createdAt,value
2022-08-28T19:51:38.600Z,11.30
2022-08-28T19:54:11.406Z,10.77
2022-08-28T19:56:40.366Z,10.57
2022-08-28T19:59:10.417Z,10.60
2022-08-28T20:01:41.630Z,10.50
2022-08-28T20:04:13.840Z,10.47
2022-08-28T20:06:44.053Z,11.60
2022-08-28T20:09:13.303Z,10.30
2022-08-28T20:11:45.336Z,10.90
2022-08-28T20:14:15.095Z,10.93
2022-08-28T20:16:46.011Z,10.20
2022-08-28T20:19:15.285Z,11.30
2022-08-28T20:21:46.421Z,11.83
2022-08-28T20:24:17.942Z,11.40
2022-08-28T20:26:46.355Z,13.73
2022-08-28T20:29:14.792Z,11.20
2022-08-28T20:31:45.557Z,12.60
2022-08-28T20:34:16.600Z,13.57
2022-08-28T20:36:46.708Z,13.93
2022-08-28T20:39:15.616Z,13.57
2022-08-28T20:41:46.021Z,14.03
2022-08-28T20:44:15.878Z,13.97
2022-08-28T20:46:44.557Z,14.23
2022-08-28T20:49:22.116Z,12.13
2022-08-28T20:51:56.899Z,13.07
2022-08-28T20:54:27.873Z,13.73
2022-08-28T20:56:57.722Z,13.33
2022-08-28T20:59:34.571Z,13.80
2022-08-28T21:02:10.487Z,14.20
2022-08-28T21:04:40.137Z,13.47
2022-08-28T21:07:10.303Z,15.07
2022-08-28T21:09:58.136Z,14.60
2022-08-28T21:12:27.078Z,14.37
2022-08-28T21:14:55.333Z,15.60
2022-08-28T21:17:28.846Z,15.20
2022-08-28T21:19:59.027Z,14.70
2022-08-28T21:22:29.037Z,14.70
2022-08-28T21:24:57.223Z,15.80
2022-08-28T21:27:25.499Z,15.67
2022-08-28T21:29:56.232Z,15.20
2022-08-28T21:32:24.507Z,14.00
2022-08-28T21:34:53.160Z,15.60
2022-08-28T21:37:21.488Z,14.20
2022-08-28T21:39:51.078Z,14.67
2022-08-28T21:42:19.511Z,14.30
2022-08-28T21:44:51.921Z,15.90
2022-08-28T21:47:21.542Z,16.40
2022-08-28T21:49:50.479Z,15.60
2022-08-28T21:52:18.929Z,14.80
2022-08-28T21:54:48.006Z,15.43
2022-08-28T21:57:17.816Z,15.27
2022-08-28T21:59:46.129Z,15.30
2022-08-28T22:02:14.378Z,16.60
2022-08-28T22:04:42.640Z,16.60
2022-08-28T22:07:12.068Z,15.30
2022-08-28T22:09:40.409Z,15.83
2022-08-28T22:12:09.488Z,15.77
2022-08-28T22:14:39.352Z,15.50
2022-08-28T22:17:11.610Z,15.90
2022-08-28T22:19:40.901Z,17.90
2022-08-28T22:22:26.887Z,17.10
2022-08-28T22:24:55.220Z,17.80
2022-08-28T22:27:23.842Z,17.70
2022-08-28T22:29:53.778Z,16.27
2022-08-28T22:32:25.660Z,16.10
2022-08-28T22:34:55.859Z,15.10
2022-08-28T22:37:25.041Z,14.53
2022-08-28T22:39:53.520Z,15.90
2022-08-28T22:42:21.809Z,14.13
2022-08-28T22:44:50.127Z,15.13
2022-08-28T22:47:19.782Z,13.60
2022-08-28T22:49:48.707Z,13.87
2022-08-28T22:52:17.413Z,13.83
2022-08-28T22:54:45.742Z,13.93
2022-08-28T22:57:15.215Z,14.57
2022-08-28T22:59:43.596Z,14.17
2022-08-28T23:02:12.286Z,14.53
2022-08-28T23:04:42.010Z,15.30
2022-08-28T23:07:10.244Z,13.80
2022-08-28T23:09:41.722Z,15.57
2022-08-28T23:12:10.403Z,15.30
2022-08-28T23:14:38.996Z,15.03
2022-08-28T23:17:07.352Z,15.13
2022-08-28T23:19:36.402Z,15.90
2022-08-28T23:22:06.165Z,14.87
2022-08-28T23:24:38.051Z,13.77
2022-08-28T23:27:32.507Z,14.90
2022-08-28T23:29:56.473Z,15.33
2022-08-28T23:32:24.829Z,16.10
2022-08-28T23:34:53.094Z,16.57
2022-08-28T23:37:22.831Z,16.30
2022-08-28T23:39:51.117Z,15.47
2022-08-28T23:42:22.767Z,17.20
2022-08-28T23:44:51.069Z,19.20
2022-08-28T23:47:19.365Z,16.60
2022-08-28T23:49:47.630Z,18.10
2022-08-28T23:52:15.891Z,17.83
2022-08-28T23:54:45.608Z,17.00
2022-08-28T23:57:13.882Z,18.60
2022-08-28T23:59:43.961Z,18.33
